sensor_id;sensor_type;location;lat;lon;timestamp;P1;durP1;ratioP1;P2;durP2;ratioP2
17151;SDS011;8691;50.828;4.700;2022-09-24T00:01:38;16.13;;;14.43;;
17151;SDS011;8691;50.828;4.700;2022-09-24T00:04:08;15.43;;;13.90;;
17151;SDS011;8691;50.828;4.700;2022-09-24T00:06:35;14.93;;;13.53;;
17151;SDS011;8691;50.828;4.700;2022-09-24T00:09:01;15.50;;;13.73;;
17151;SDS011;8691;50.828;4.700;2022-09-24T00:11:27;15.20;;;13.60;;
17151;SDS011;8691;50.828;4.700;2022-09-24T00:13:55;16.30;;;13.70;;
17151;SDS011;8691;50.828;4.700;2022-09-24T00:16:21;13.93;;;12.63;;
17151;SDS011;8691;50.828;4.700;2022-09-24T00:18:47;16.37;;;13.77;;
17151;SDS011;8691;50.828;4.700;2022-09-24T00:21:15;15.83;;;14.33;;
17151;SDS011;8691;50.828;4.700;2022-09-24T00:23:43;16.60;;;14.90;;
17151;SDS011;8691;50.828;4.700;2022-09-24T00:26:10;15.97;;;14.37;;
17151;SDS011;8691;50.828;4.700;2022-09-24T00:28:54;14.03;;;12.60;;
17151;SDS011;8691;50.828;4.700;2022-09-24T00:31:21;14.63;;;13.13;;
17151;SDS011;8691;50.828;4.700;2022-09-24T00:33:47;16.17;;;12.77;;
17151;SDS011;8691;50.828;4.700;2022-09-24T00:36:14;12.63;;;11.27;;
17151;SDS011;8691;50.828;4.700;2022-09-24T00:38:41;12.47;;;11.10;;
17151;SDS011;8691;50.828;4.700;2022-09-24T00:41:07;11.87;;;10.70;;
17151;SDS011;8691;50.828;4.700;2022-09-24T00:43:35;13.13;;;11.83;;
17151;SDS011;8691;50.828;4.700;2022-09-24T00:46:06;13.03;;;11.10;;
17151;SDS011;8691;50.828;4.700;2022-09-24T00:48:30;13.57;;;12.17;;
17151;SDS011;8691;50.828;4.700;2022-09-24T00:50:57;14.13;;;12.67;;
17151;SDS011;8691;50.828;4.700;2022-09-24T00:53:24;14.57;;;12.70;;
17151;SDS011;8691;50.828;4.700;2022-09-24T00:55:51;15.17;;;13.57;;
17151;SDS011;8691;50.828;4.700;2022-09-24T00:58:18;16.00;;;13.57;;
17151;SDS011;8691;50.828;4.700;2022-09-24T01:00:45;14.43;;;11.77;;
17151;SDS011;8691;50.828;4.700;2022-09-24T01:03:13;13.70;;;12.30;;
17151;SDS011;8691;50.828;4.700;2022-09-24T01:05:41;14.83;;;13.30;;
17151;SDS011;8691;50.828;4.700;2022-09-24T01:08:14;17.25;;;15.23;;
17151;SDS011;8691;50.828;4.700;2022-09-24T01:19:24;19.30;;;14.17;;
17151;SDS011;8691;50.828;4.700;2022-09-24T01:21:56;14.43;;;12.93;;
17151;SDS011;8691;50.828;4.700;2022-09-24T01:27:21;16.90;;;15.30;;
17151;SDS011;8691;50.828;4.700;2022-09-24T01:30:05;15.03;;;13.53;;
17151;SDS011;8691;50.828;4.700;2022-09-24T01:37:40;14.23;;;12.77;;
17151;SDS011;8691;50.828;4.700;2022-09-24T01:40:06;16.13;;;14.30;;
17151;SDS011;8691;50.828;4.700;2022-09-24T01:42:33;17.37;;;13.90;;
17151;SDS011;8691;50.828;4.700;2022-09-24T01:45:00;15.43;;;13.83;;
17151;SDS011;8691;50.828;4.700;2022-09-24T01:47:34;15.40;;;13.80;;
17151;SDS011;8691;50.828;4.700;2022-09-24T01:50:00;15.87;;;14.13;;
17151;SDS011;8691;50.828;4.700;2022-09-24T01:52:29;16.53;;;14.67;;
17151;SDS011;8691;50.828;4.700;2022-09-24T01:54:53;20.23;;;16.07;;
17151;SDS011;8691;50.828;4.700;2022-09-24T01:57:21;20.33;;;14.93;;
17151;SDS011;8691;50.828;4.700;2022-09-24T01:59:47;20.40;;;18.03;;
17151;SDS011;8691;50.828;4.700;2022-09-24T02:02:21;20.10;;;18.10;;
17151;SDS011;8691;50.828;4.700;2022-09-24T02:05:11;17.80;;;16.00;;
17151;SDS011;8691;50.828;4.700;2022-09-24T02:07:47;19.27;;;15.40;;
17151;SDS011;8691;50.828;4.700;2022-09-24T02:10:13;16.93;;;15.23;;
17151;SDS011;8691;50.828;4.700;2022-09-24T02:12:39;17.10;;;15.40;;
17151;SDS011;8691;50.828;4.700;2022-09-24T02:15:13;16.90;;;15.20;;
17151;SDS011;8691;50.828;4.700;2022-09-24T02:17:43;16.23;;;14.57;;
17151;SDS011;8691;50.828;4.700;2022-09-24T02:20:10;17.30;;;14.97;;
17151;SDS011;8691;50.828;4.700;2022-09-24T02:22:35;17.00;;;15.23;;
17151;SDS011;8691;50.828;4.700;2022-09-24T02:25:03;17.13;;;14.77;;
17151;SDS011;8691;50.828;4.700;2022-09-24T02:27:28;16.40;;;14.80;;
17151;SDS011;8691;50.828;4.700;2022-09-24T02:29:58;15.97;;;14.37;;
17151;SDS011;8691;50.828;4.700;2022-09-24T02:32:28;16.57;;;14.83;;
17151;SDS011;8691;50.828;4.700;2022-09-24T02:34:55;17.00;;;15.20;;
17151;SDS011;8691;50.828;4.700;2022-09-24T02:37:22;17.47;;;15.73;;
17151;SDS011;8691;50.828;4.700;2022-09-24T02:39:48;16.97;;;15.17;;
17151;SDS011;8691;50.828;4.700;2022-09-24T02:42:15;16.60;;;14.50;;
17151;SDS011;8691;50.828;4.700;2022-09-24T02:44:42;18.83;;;15.67;;
17151;SDS011;8691;50.828;4.700;2022-09-24T02:47:09;17.23;;;15.30;;
17151;SDS011;8691;50.828;4.700;2022-09-24T02:49:35;16.67;;;14.97;;
17151;SDS011;8691;50.828;4.700;2022-09-24T02:52:03;16.73;;;14.87;;
17151;SDS011;8691;50.828;4.700;2022-09-24T02:54:29;17.67;;;15.53;;
17151;SDS011;8691;50.828;4.700;2022-09-24T02:56:57;17.70;;;15.13;;
17151;SDS011;8691;50.828;4.700;2022-09-24T02:59:23;17.53;;;15.80;;
17151;SDS011;8691;50.828;4.700;2022-09-24T03:01:51;18.07;;;16.27;;
17151;SDS011;8691;50.828;4.700;2022-09-24T03:04:17;20.10;;;16.57;;
17151;SDS011;8691;50.828;4.700;2022-09-24T03:06:44;17.53;;;15.73;;
17151;SDS011;8691;50.828;4.700;2022-09-24T03:09:11;17.43;;;15.73;;
17151;SDS011;8691;50.828;4.700;2022-09-24T03:11:37;17.67;;;15.77;;
17151;SDS011;8691;50.828;4.700;2022-09-24T03:14:04;17.70;;;15.23;;
17151;SDS011;8691;50.828;4.700;2022-09-24T03:16:31;17.73;;;15.70;;
17151;SDS011;8691;50.828;4.700;2022-09-24T03:18:58;17.53;;;15.63;;
17151;SDS011;8691;50.828;4.700;2022-09-24T03:21:25;18.07;;;16.17;;
17151;SDS011;8691;50.828;4.700;2022-09-24T03:23:52;18.30;;;16.40;;
17151;SDS011;8691;50.828;4.700;2022-09-24T03:26:19;18.50;;;16.47;;
17151;SDS011;8691;50.828;4.700;2022-09-24T03:28:46;17.00;;;15.20;;
17151;SDS011;8691;50.828;4.700;2022-09-24T03:31:13;17.33;;;15.47;;
17151;SDS011;8691;50.828;4.700;2022-09-24T03:33:41;17.47;;;15.60;;
17151;SDS011;8691;50.828;4.700;2022-09-24T03:36:08;17.80;;;15.97;;
17151;SDS011;8691;50.828;4.700;2022-09-24T03:38:34;19.17;;;16.17;;
17151;SDS011;8691;50.828;4.700;2022-09-24T03:41:01;18.07;;;15.97;;
17151;SDS011;8691;50.828;4.700;2022-09-24T03:43:27;20.13;;;16.50;;
17151;SDS011;8691;50.828;4.700;2022-09-24T03:45:55;18.20;;;16.00;;
17151;SDS011;8691;50.828;4.700;2022-09-24T03:48:21;18.03;;;16.13;;
17151;SDS011;8691;50.828;4.700;2022-09-24T03:50:48;19.53;;;15.83;;
17151;SDS011;8691;50.828;4.700;2022-09-24T03:53:15;23.40;;;16.50;;
17151;SDS011;8691;50.828;4.700;2022-09-24T03:55:44;17.17;;;15.47;;
17151;SDS011;8691;50.828;4.700;2022-09-24T03:58:08;17.90;;;16.00;;
17151;SDS011;8691;50.828;4.700;2022-09-24T04:00:34;17.30;;;15.37;;
17151;SDS011;8691;50.828;4.700;2022-09-24T04:03:01;18.57;;;16.57;;
17151;SDS011;8691;50.828;4.700;2022-09-24T04:05:28;17.73;;;15.43;;
17151;SDS011;8691;50.828;4.700;2022-09-24T04:07:54;18.00;;;16.10;;
17151;SDS011;8691;50.828;4.700;2022-09-24T04:10:21;23.10;;;20.80;;
17151;SDS011;8691;50.828;4.700;2022-09-24T04:12:49;22.30;;;20.12;;
17151;SDS011;8691;50.828;4.700;2022-09-24T04:15:15;19.67;;;17.27;;
17151;SDS011;8691;50.828;4.700;2022-09-24T04:17:52;20.10;;;16.90;;
17151;SDS011;8691;50.828;4.700;2022-09-24T04:20:14;21.40;;;17.10;;
17151;SDS011;8691;50.828;4.700;2022-09-24T04:22:41;20.63;;;16.77;;
17151;SDS011;8691;50.828;4.700;2022-09-24T04:25:08;19.60;;;17.00;;
17151;SDS011;8691;50.828;4.700;2022-09-24T04:27:34;20.73;;;16.17;;
17151;SDS011;8691;50.828;4.700;2022-09-24T04:30:02;19.63;;;16.50;;
17151;SDS011;8691;50.828;4.700;2022-09-24T04:32:28;20.23;;;17.87;;
17151;SDS011;8691;50.828;4.700;2022-09-24T04:34:55;19.73;;;16.60;;
17151;SDS011;8691;50.828;4.700;2022-09-24T04:37:22;19.47;;;17.37;;
17151;SDS011;8691;50.828;4.700;2022-09-24T04:39:49;20.43;;;17.37;;
17151;SDS011;8691;50.828;4.700;2022-09-24T04:42:17;19.90;;;17.40;;
17151;SDS011;8691;50.828;4.700;2022-09-24T04:44:43;19.87;;;17.77;;
17151;SDS011;8691;50.828;4.700;2022-09-24T04:47:10;20.37;;;18.20;;
17151;SDS011;8691;50.828;4.700;2022-09-24T04:49:38;25.98;;;23.27;;
17151;SDS011;8691;50.828;4.700;2022-09-24T04:52:05;21.20;;;18.93;;
17151;SDS011;8691;50.828;4.700;2022-09-24T04:54:32;20.13;;;17.93;;
17151;SDS011;8691;50.828;4.700;2022-09-24T04:56:59;21.77;;;18.43;;
17151;SDS011;8691;50.828;4.700;2022-09-24T04:59:25;25.23;;;21.03;;
17151;SDS011;8691;50.828;4.700;2022-09-24T05:01:53;20.80;;;17.17;;
17151;SDS011;8691;50.828;4.700;2022-09-24T05:04:19;20.97;;;17.77;;
17151;SDS011;8691;50.828;4.700;2022-09-24T05:06:47;22.03;;;18.07;;
17151;SDS011;8691;50.828;4.700;2022-09-24T05:09:13;21.80;;;17.70;;
17151;SDS011;8691;50.828;4.700;2022-09-24T05:11:40;20.67;;;18.00;;
17151;SDS011;8691;50.828;4.700;2022-09-24T05:14:06;19.70;;;17.53;;
17151;SDS011;8691;50.828;4.700;2022-09-24T05:16:33;21.53;;;18.77;;
17151;SDS011;8691;50.828;4.700;2022-09-24T05:19:01;24.87;;;22.37;;
17151;SDS011;8691;50.828;4.700;2022-09-24T05:21:28;26.15;;;23.45;;
17151;SDS011;8691;50.828;4.700;2022-09-24T05:23:54;22.27;;;19.87;;
17151;SDS011;8691;50.828;4.700;2022-09-24T05:26:21;24.98;;;22.38;;
17151;SDS011;8691;50.828;4.700;2022-09-24T05:29:07;25.12;;;22.52;;
17151;SDS011;8691;50.828;4.700;2022-09-24T05:31:34;22.63;;;20.20;;
17151;SDS011;8691;50.828;4.700;2022-09-24T05:34:01;22.77;;;18.70;;
17151;SDS011;8691;50.828;4.700;2022-09-24T05:36:28;20.90;;;18.63;;
17151;SDS011;8691;50.828;4.700;2022-09-24T05:38:54;21.67;;;18.13;;
17151;SDS011;8691;50.828;4.700;2022-09-24T05:41:21;22.77;;;18.37;;
17151;SDS011;8691;50.828;4.700;2022-09-24T05:43:47;22.17;;;18.07;;
17151;SDS011;8691;50.828;4.700;2022-09-24T05:46:14;21.97;;;17.27;;
17151;SDS011;8691;50.828;4.700;2022-09-24T05:48:41;23.60;;;18.57;;
17151;SDS011;8691;50.828;4.700;2022-09-24T05:51:08;23.53;;;18.10;;
17151;SDS011;8691;50.828;4.700;2022-09-24T05:53:35;22.77;;;18.47;;
17151;SDS011;8691;50.828;4.700;2022-09-24T05:56:01;24.30;;;18.77;;
17151;SDS011;8691;50.828;4.700;2022-09-24T05:58:28;23.43;;;18.43;;
17151;SDS011;8691;50.828;4.700;2022-09-24T06:00:54;23.67;;;17.93;;
17151;SDS011;8691;50.828;4.700;2022-09-24T06:03:21;23.33;;;17.23;;
17151;SDS011;8691;50.828;4.700;2022-09-24T06:05:48;25.77;;;18.43;;
17151;SDS011;8691;50.828;4.700;2022-09-24T06:08:15;21.80;;;17.37;;
17151;SDS011;8691;50.828;4.700;2022-09-24T06:10:41;21.77;;;17.30;;
17151;SDS011;8691;50.828;4.700;2022-09-24T06:13:08;27.13;;;23.30;;
17151;SDS011;8691;50.828;4.700;2022-09-24T06:15:36;27.77;;;22.88;;
17151;SDS011;8691;50.828;4.700;2022-09-24T06:18:05;27.53;;;19.83;;
17151;SDS011;8691;50.828;4.700;2022-09-24T06:20:31;22.03;;;17.70;;
17151;SDS011;8691;50.828;4.700;2022-09-24T06:22:59;23.40;;;18.37;;
17151;SDS011;8691;50.828;4.700;2022-09-24T06:25:25;21.93;;;17.23;;
17151;SDS011;8691;50.828;4.700;2022-09-24T06:27:53;19.87;;;17.40;;
17151;SDS011;8691;50.828;4.700;2022-09-24T06:30:19;21.87;;;17.53;;
17151;SDS011;8691;50.828;4.700;2022-09-24T06:32:47;20.63;;;17.17;;
17151;SDS011;8691;50.828;4.700;2022-09-24T06:35:13;20.67;;;16.70;;
17151;SDS011;8691;50.828;4.700;2022-09-24T06:37:40;25.73;;;18.27;;
17151;SDS011;8691;50.828;4.700;2022-09-24T06:40:07;23.33;;;17.53;;
17151;SDS011;8691;50.828;4.700;2022-09-24T06:42:34;26.37;;;17.63;;
17151;SDS011;8691;50.828;4.700;2022-09-24T06:45:00;21.10;;;17.43;;
17151;SDS011;8691;50.828;4.700;2022-09-24T06:47:28;23.70;;;17.27;;
17151;SDS011;8691;50.828;4.700;2022-09-24T06:49:54;21.20;;;16.83;;
17151;SDS011;8691;50.828;4.700;2022-09-24T06:52:22;22.67;;;17.23;;
17151;SDS011;8691;50.828;4.700;2022-09-24T06:54:48;20.80;;;16.53;;
17151;SDS011;8691;50.828;4.700;2022-09-24T06:57:15;23.73;;;16.83;;
17151;SDS011;8691;50.828;4.700;2022-09-24T06:59:41;22.00;;;17.23;;
17151;SDS011;8691;50.828;4.700;2022-09-24T07:02:08;24.83;;;17.77;;
17151;SDS011;8691;50.828;4.700;2022-09-24T07:04:36;26.17;;;21.23;;
17151;SDS011;8691;50.828;4.700;2022-09-24T07:07:04;25.83;;;21.80;;
17151;SDS011;8691;50.828;4.700;2022-09-24T07:09:49;23.10;;;18.40;;
17151;SDS011;8691;50.828;4.700;2022-09-24T07:12:16;21.80;;;16.50;;
17151;SDS011;8691;50.828;4.700;2022-09-24T07:14:43;23.87;;;16.60;;
17151;SDS011;8691;50.828;4.700;2022-09-24T07:17:10;21.97;;;16.53;;
17151;SDS011;8691;50.828;4.700;2022-09-24T07:19:36;21.17;;;16.67;;
17151;SDS011;8691;50.828;4.700;2022-09-24T07:22:04;20.47;;;16.60;;
17151;SDS011;8691;50.828;4.700;2022-09-24T07:24:30;21.33;;;16.60;;
17151;SDS011;8691;50.828;4.700;2022-09-24T07:26:58;21.57;;;16.13;;
17151;SDS011;8691;50.828;4.700;2022-09-24T07:29:24;22.10;;;16.47;;
17151;SDS011;8691;50.828;4.700;2022-09-24T07:31:51;23.73;;;17.17;;
17151;SDS011;8691;50.828;4.700;2022-09-24T07:34:17;18.50;;;15.97;;
17151;SDS011;8691;50.828;4.700;2022-09-24T07:36:44;23.23;;;17.17;;
17151;SDS011;8691;50.828;4.700;2022-09-24T07:39:11;22.17;;;17.23;;
17151;SDS011;8691;50.828;4.700;2022-09-24T07:41:37;22.03;;;16.67;;
17151;SDS011;8691;50.828;4.700;2022-09-24T07:44:04;21.40;;;17.70;;
17151;SDS011;8691;50.828;4.700;2022-09-24T07:46:30;20.83;;;16.03;;
17151;SDS011;8691;50.828;4.700;2022-09-24T07:48:57;20.10;;;16.17;;
17151;SDS011;8691;50.828;4.700;2022-09-24T07:51:24;19.97;;;16.57;;
17151;SDS011;8691;50.828;4.700;2022-09-24T07:53:50;21.47;;;17.57;;
17151;SDS011;8691;50.828;4.700;2022-09-24T07:56:17;21.60;;;16.27;;
17151;SDS011;8691;50.828;4.700;2022-09-24T07:58:44;21.20;;;16.60;;
17151;SDS011;8691;50.828;4.700;2022-09-24T08:01:10;19.83;;;16.70;;
17151;SDS011;8691;50.828;4.700;2022-09-24T08:03:37;18.63;;;15.57;;
17151;SDS011;8691;50.828;4.700;2022-09-24T08:06:03;22.43;;;17.57;;
17151;SDS011;8691;50.828;4.700;2022-09-24T08:08:30;21.40;;;17.93;;
17151;SDS011;8691;50.828;4.700;2022-09-24T08:10:57;19.30;;;16.33;;
17151;SDS011;8691;50.828;4.700;2022-09-24T08:13:23;18.60;;;16.10;;
17151;SDS011;8691;50.828;4.700;2022-09-24T08:15:56;21.60;;;16.13;;
17151;SDS011;8691;50.828;4.700;2022-09-24T08:18:22;20.43;;;16.57;;
17151;SDS011;8691;50.828;4.700;2022-09-24T08:20:49;20.10;;;16.37;;
17151;SDS011;8691;50.828;4.700;2022-09-24T08:23:16;20.00;;;16.30;;
17151;SDS011;8691;50.828;4.700;2022-09-24T08:25:43;21.30;;;16.20;;
17151;SDS011;8691;50.828;4.700;2022-09-24T08:28:10;18.80;;;16.00;;
17151;SDS011;8691;50.828;4.700;2022-09-24T08:30:37;19.00;;;16.07;;
17151;SDS011;8691;50.828;4.700;2022-09-24T08:33:03;20.27;;;14.80;;
17151;SDS011;8691;50.828;4.700;2022-09-24T08:35:30;18.40;;;15.77;;
17151;SDS011;8691;50.828;4.700;2022-09-24T08:37:56;20.13;;;15.17;;
17151;SDS011;8691;50.828;4.700;2022-09-24T08:40:23;18.13;;;14.80;;
17151;SDS011;8691;50.828;4.700;2022-09-24T08:42:53;19.27;;;15.80;;
17151;SDS011;8691;50.828;4.700;2022-09-24T08:45:16;18.20;;;14.57;;
17151;SDS011;8691;50.828;4.700;2022-09-24T08:50:42;17.93;;;13.87;;
17151;SDS011;8691;50.828;4.700;2022-09-24T08:53:15;21.75;;;18.10;;
17151;SDS011;8691;50.828;4.700;2022-09-24T08:55:43;18.47;;;15.77;;
17151;SDS011;8691;50.828;4.700;2022-09-24T09:00:46;18.40;;;15.23;;
17151;SDS011;8691;50.828;4.700;2022-09-24T09:03:31;19.23;;;15.20;;
17151;SDS011;8691;50.828;4.700;2022-09-24T09:05:57;22.07;;;15.53;;
17151;SDS011;8691;50.828;4.700;2022-09-24T09:08:34;19.80;;;15.13;;
17151;SDS011;8691;50.828;4.700;2022-09-24T09:11:01;19.20;;;14.63;;
17151;SDS011;8691;50.828;4.700;2022-09-24T09:13:28;21.30;;;15.93;;
17151;SDS011;8691;50.828;4.700;2022-09-24T09:16:03;20.80;;;16.17;;
17151;SDS011;8691;50.828;4.700;2022-09-24T09:18:39;20.47;;;15.47;;
17151;SDS011;8691;50.828;4.700;2022-09-24T09:21:09;22.47;;;15.17;;
17151;SDS011;8691;50.828;4.700;2022-09-24T09:23:45;21.83;;;17.03;;
17151;SDS011;8691;50.828;4.700;2022-09-24T09:26:10;22.02;;;17.80;;
17151;SDS011;8691;50.828;4.700;2022-09-24T09:28:38;20.45;;;17.70;;
17151;SDS011;8691;50.828;4.700;2022-09-24T09:31:17;18.20;;;15.10;;
17151;SDS011;8691;50.828;4.700;2022-09-24T09:39:31;17.13;;;14.50;;
17151;SDS011;8691;50.828;4.700;2022-09-24T09:42:14;18.63;;;12.97;;
17151;SDS011;8691;50.828;4.700;2022-09-24T09:44:40;16.97;;;13.33;;
17151;SDS011;8691;50.828;4.700;2022-09-24T09:49:48;15.93;;;13.40;;
17151;SDS011;8691;50.828;4.700;2022-09-24T09:52:17;17.17;;;13.77;;
17151;SDS011;8691;50.828;4.700;2022-09-24T09:54:41;15.10;;;12.33;;
17151;SDS011;8691;50.828;4.700;2022-09-24T09:57:11;16.90;;;13.20;;
17151;SDS011;8691;50.828;4.700;2022-09-24T09:59:34;15.87;;;12.47;;
17151;SDS011;8691;50.828;4.700;2022-09-24T10:02:01;17.57;;;13.03;;
17151;SDS011;8691;50.828;4.700;2022-09-24T10:04:34;15.83;;;12.73;;
17151;SDS011;8691;50.828;4.700;2022-09-24T10:07:10;16.60;;;11.97;;
17151;SDS011;8691;50.828;4.700;2022-09-24T10:09:36;15.70;;;13.53;;
17151;SDS011;8691;50.828;4.700;2022-09-24T10:12:06;15.30;;;13.65;;
17151;SDS011;8691;50.828;4.700;2022-09-24T10:14:33;16.48;;;13.88;;
17151;SDS011;8691;50.828;4.700;2022-09-24T10:17:01;16.37;;;13.73;;
17151;SDS011;8691;50.828;4.700;2022-09-24T10:19:29;14.80;;;13.18;;
17151;SDS011;8691;50.828;4.700;2022-09-24T10:21:55;15.90;;;11.97;;
17151;SDS011;8691;50.828;4.700;2022-09-24T10:24:25;17.23;;;11.83;;
17151;SDS011;8691;50.828;4.700;2022-09-24T10:26:51;15.17;;;11.33;;
17151;SDS011;8691;50.828;4.700;2022-09-24T10:29:24;17.73;;;12.40;;
17151;SDS011;8691;50.828;4.700;2022-09-24T10:32:18;15.60;;;12.27;;
17151;SDS011;8691;50.828;4.700;2022-09-24T10:35:03;16.30;;;12.87;;
17151;SDS011;8691;50.828;4.700;2022-09-24T10:37:19;18.43;;;13.03;;
17151;SDS011;8691;50.828;4.700;2022-09-24T10:39:55;16.17;;;12.63;;
17151;SDS011;8691;50.828;4.700;2022-09-24T10:42:22;18.03;;;13.73;;
17151;SDS011;8691;50.828;4.700;2022-09-24T10:44:48;18.93;;;13.43;;
17151;SDS011;8691;50.828;4.700;2022-09-24T10:57:30;24.10;;;18.50;;
17151;SDS011;8691;50.828;4.700;2022-09-24T11:00:00;23.40;;;17.37;;
17151;SDS011;8691;50.828;4.700;2022-09-24T11:02:54;22.15;;;16.95;;
17151;SDS011;8691;50.828;4.700;2022-09-24T11:15:53;21.47;;;13.97;;
17151;SDS011;8691;50.828;4.700;2022-09-24T11:21:14;20.67;;;13.77;;
17151;SDS011;8691;50.828;4.700;2022-09-24T11:29:42;22.17;;;16.05;;
17151;SDS011;8691;50.828;4.700;2022-09-24T11:37:39;16.80;;;12.10;;
17151;SDS011;8691;50.828;4.700;2022-09-24T11:40:24;18.00;;;11.57;;
17151;SDS011;8691;50.828;4.700;2022-09-24T11:51:25;13.57;;;10.83;;
17151;SDS011;8691;50.828;4.700;2022-09-24T11:56:23;14.00;;;10.50;;
17151;SDS011;8691;50.828;4.700;2022-09-24T11:58:59;13.57;;;10.90;;
17151;SDS011;8691;50.828;4.700;2022-09-24T12:01:25;14.17;;;10.53;;
17151;SDS011;8691;50.828;4.700;2022-09-24T12:06:47;15.60;;;10.87;;
17151;SDS011;8691;50.828;4.700;2022-09-24T12:09:19;17.17;;;12.07;;
17151;SDS011;8691;50.828;4.700;2022-09-24T12:11:47;16.90;;;13.40;;
17151;SDS011;8691;50.828;4.700;2022-09-24T12:14:21;17.58;;;13.62;;
17151;SDS011;8691;50.828;4.700;2022-09-24T12:16:46;15.43;;;11.80;;
17151;SDS011;8691;50.828;4.700;2022-09-24T12:22:06;16.30;;;11.37;;
17151;SDS011;8691;50.828;4.700;2022-09-24T12:24:36;15.57;;;11.53;;
17151;SDS011;8691;50.828;4.700;2022-09-24T12:27:03;17.07;;;10.93;;
17151;SDS011;8691;50.828;4.700;2022-09-24T12:32:42;11.67;;;9.47;;
17151;SDS011;8691;50.828;4.700;2022-09-24T12:35:24;10.40;;;8.97;;
17151;SDS011;8691;50.828;4.700;2022-09-24T12:37:51;13.57;;;10.97;;
17151;SDS011;8691;50.828;4.700;2022-09-24T12:40:27;11.43;;;9.47;;
17151;SDS011;8691;50.828;4.700;2022-09-24T12:42:51;12.97;;;9.10;;
17151;SDS011;8691;50.828;4.700;2022-09-24T12:45:20;9.33;;;8.07;;
17151;SDS011;8691;50.828;4.700;2022-09-24T12:47:50;10.97;;;8.30;;
17151;SDS011;8691;50.828;4.700;2022-09-24T12:50:20;8.20;;;7.40;;
17151;SDS011;8691;50.828;4.700;2022-09-24T12:52:45;8.67;;;7.20;;
17151;SDS011;8691;50.828;4.700;2022-09-24T12:55:19;7.90;;;6.50;;
17151;SDS011;8691;50.828;4.700;2022-09-24T12:57:49;9.50;;;7.67;;
17151;SDS011;8691;50.828;4.700;2022-09-24T13:03:00;8.37;;;7.33;;
17151;SDS011;8691;50.828;4.700;2022-09-24T13:05:45;9.27;;;7.27;;
17151;SDS011;8691;50.828;4.700;2022-09-24T13:08:21;8.20;;;7.30;;
17151;SDS011;8691;50.828;4.700;2022-09-24T13:10:34;8.97;;;8.07;;
17151;SDS011;8691;50.828;4.700;2022-09-24T13:13:00;10.80;;;9.43;;
17151;SDS011;8691;50.828;4.700;2022-09-24T13:15:31;11.38;;;8.90;;
17151;SDS011;8691;50.828;4.700;2022-09-24T13:18:00;10.70;;;9.60;;
17151;SDS011;8691;50.828;4.700;2022-09-24T13:20:30;10.45;;;9.45;;
17151;SDS011;8691;50.828;4.700;2022-09-24T13:25:53;12.05;;;10.30;;
17151;SDS011;8691;50.828;4.700;2022-09-24T13:28:19;10.18;;;9.18;;
17151;SDS011;8691;50.828;4.700;2022-09-24T13:30:45;10.10;;;9.20;;
17151;SDS011;8691;50.828;4.700;2022-09-24T13:38:25;10.23;;;9.23;;
17151;SDS011;8691;50.828;4.700;2022-09-24T13:40:52;10.45;;;9.40;;
17151;SDS011;8691;50.828;4.700;2022-09-24T13:43:19;10.55;;;9.25;;
17151;SDS011;8691;50.828;4.700;2022-09-24T13:45:44;9.47;;;8.57;;
17151;SDS011;8691;50.828;4.700;2022-09-24T13:48:17;10.30;;;9.32;;
17151;SDS011;8691;50.828;4.700;2022-09-24T13:50:47;10.85;;;9.75;;
17151;SDS011;8691;50.828;4.700;2022-09-24T13:53:14;10.33;;;9.33;;
17151;SDS011;8691;50.828;4.700;2022-09-24T13:55:45;11.35;;;10.25;;
17151;SDS011;8691;50.828;4.700;2022-09-24T13:58:25;11.27;;;10.27;;
17151;SDS011;8691;50.828;4.700;2022-09-24T14:00:54;12.80;;;11.43;;
17151;SDS011;8691;50.828;4.700;2022-09-24T14:05:51;11.10;;;10.10;;
17151;SDS011;8691;50.828;4.700;2022-09-24T14:08:21;11.62;;;10.62;;
17151;SDS011;8691;50.828;4.700;2022-09-24T14:10:48;12.40;;;11.20;;
17151;SDS011;8691;50.828;4.700;2022-09-24T14:13:16;12.57;;;11.27;;
17151;SDS011;8691;50.828;4.700;2022-09-24T14:15:49;11.17;;;10.10;;
17151;SDS011;8691;50.828;4.700;2022-09-24T14:18:24;12.53;;;11.27;;
17151;SDS011;8691;50.828;4.700;2022-09-24T14:20:53;13.80;;;12.50;;
17151;SDS011;8691;50.828;4.700;2022-09-24T14:23:23;12.50;;;11.30;;
17151;SDS011;8691;50.828;4.700;2022-09-24T14:25:50;13.75;;;12.35;;
17151;SDS011;8691;50.828;4.700;2022-09-24T14:28:17;14.12;;;12.07;;
17151;SDS011;8691;50.828;4.700;2022-09-24T14:30:48;13.73;;;12.33;;
17151;SDS011;8691;50.828;4.700;2022-09-24T14:33:16;13.45;;;12.15;;
17151;SDS011;8691;50.828;4.700;2022-09-24T14:35:47;11.77;;;10.57;;
17151;SDS011;8691;50.828;4.700;2022-09-24T14:40:47;13.55;;;12.25;;
17151;SDS011;8691;50.828;4.700;2022-09-24T14:43:25;13.55;;;11.80;;
17151;SDS011;8691;50.828;4.700;2022-09-24T14:45:48;13.52;;;12.15;;
17151;SDS011;8691;50.828;4.700;2022-09-24T14:50:44;13.23;;;11.93;;
17151;SDS011;8691;50.828;4.700;2022-09-24T14:53:12;13.80;;;11.30;;
17151;SDS011;8691;50.828;4.700;2022-09-24T14:55:53;14.23;;;11.63;;
17151;SDS011;8691;50.828;4.700;2022-09-24T15:01:03;12.33;;;11.03;;
17151;SDS011;8691;50.828;4.700;2022-09-24T15:03:31;13.02;;;11.60;;
17151;SDS011;8691;50.828;4.700;2022-09-24T15:06:06;12.18;;;10.98;;
17151;SDS011;8691;50.828;4.700;2022-09-24T15:08:32;14.57;;;13.05;;
17151;SDS011;8691;50.828;4.700;2022-09-24T15:11:01;12.20;;;10.97;;
17151;SDS011;8691;50.828;4.700;2022-09-24T15:13:32;14.80;;;13.30;;
17151;SDS011;8691;50.828;4.700;2022-09-24T15:16:05;12.80;;;11.60;;
17151;SDS011;8691;50.828;4.700;2022-09-24T15:18:31;11.20;;;9.30;;
17151;SDS011;8691;50.828;4.700;2022-09-24T15:20:58;10.85;;;9.75;;
17151;SDS011;8691;50.828;4.700;2022-09-24T15:23:25;10.88;;;9.77;;
17151;SDS011;8691;50.828;4.700;2022-09-24T15:25:51;11.15;;;10.15;;
17151;SDS011;8691;50.828;4.700;2022-09-24T15:28:18;11.50;;;10.50;;
17151;SDS011;8691;50.828;4.700;2022-09-24T15:30:45;11.35;;;10.25;;
17151;SDS011;8691;50.828;4.700;2022-09-24T15:33:12;11.23;;;10.23;;
17151;SDS011;8691;50.828;4.700;2022-09-24T15:35:39;11.25;;;10.00;;
17151;SDS011;8691;50.828;4.700;2022-09-24T15:38:15;11.10;;;10.10;;
17151;SDS011;8691;50.828;4.700;2022-09-24T15:40:41;11.70;;;10.50;;
17151;SDS011;8691;50.828;4.700;2022-09-24T15:43:15;11.52;;;9.88;;
17151;SDS011;8691;50.828;4.700;2022-09-24T15:45:47;8.57;;;7.77;;
17151;SDS011;8691;50.828;4.700;2022-09-24T15:48:14;10.05;;;9.05;;
17151;SDS011;8691;50.828;4.700;2022-09-24T15:50:41;10.40;;;9.35;;
17151;SDS011;8691;50.828;4.700;2022-09-24T15:53:10;10.35;;;9.45;;
17151;SDS011;8691;50.828;4.700;2022-09-24T15:55:34;9.50;;;8.50;;
17151;SDS011;8691;50.828;4.700;2022-09-24T15:58:01;10.62;;;9.50;;
17151;SDS011;8691;50.828;4.700;2022-09-24T16:00:28;10.50;;;9.52;;
17151;SDS011;8691;50.828;4.700;2022-09-24T16:02:55;11.43;;;10.25;;
17151;SDS011;8691;50.828;4.700;2022-09-24T16:05:22;9.30;;;8.40;;
17151;SDS011;8691;50.828;4.700;2022-09-24T16:07:48;10.98;;;9.90;;
17151;SDS011;8691;50.828;4.700;2022-09-24T16:10:15;11.00;;;9.80;;
17151;SDS011;8691;50.828;4.700;2022-09-24T16:12:42;11.60;;;10.50;;
17151;SDS011;8691;50.828;4.700;2022-09-24T16:15:12;12.52;;;11.32;;
17151;SDS011;8691;50.828;4.700;2022-09-24T16:17:39;14.50;;;12.30;;
17151;SDS011;8691;50.828;4.700;2022-09-24T16:20:06;11.53;;;10.43;;
17151;SDS011;8691;50.828;4.700;2022-09-24T16:22:33;12.50;;;11.20;;
17151;SDS011;8691;50.828;4.700;2022-09-24T16:25:00;10.20;;;9.07;;
17151;SDS011;8691;50.828;4.700;2022-09-24T16:27:27;12.23;;;11.02;;
17151;SDS011;8691;50.828;4.700;2022-09-24T16:29:54;12.98;;;11.65;;